createdAt,value
2018-04-26T00:18:17.521Z,16.23
2018-04-26T00:20:23.085Z,16.63
2018-04-26T00:22:27.229Z,17.10
2018-04-26T00:24:31.746Z,16.60
2018-04-26T00:26:35.837Z,15.60
2018-04-26T00:28:39.681Z,20.70
2018-04-26T00:30:44.339Z,14.60
2018-04-26T00:32:48.493Z,15.20
2018-04-26T00:34:52.809Z,15.17
2018-04-26T00:36:57.330Z,17.53
2018-04-26T00:39:01.923Z,12.80
2018-04-26T00:41:06.786Z,14.43
2018-04-26T00:43:11.823Z,12.13
2018-04-26T00:45:16.540Z,12.17
2018-04-26T00:47:22.005Z,12.93
2018-04-26T00:49:26.413Z,12.83
2018-04-26T00:51:39.182Z,11.40
2018-04-26T00:53:43.077Z,11.80
2018-04-26T00:55:47.834Z,10.93
2018-04-26T00:57:51.817Z,10.87
2018-04-26T00:59:55.724Z,11.57
2018-04-26T01:02:00.211Z,10.97
2018-04-26T01:04:04.514Z,12.27
2018-04-26T01:06:09.858Z,11.47
2018-04-26T01:08:14.464Z,10.77
2018-04-26T01:10:20.590Z,10.50
2018-04-26T01:12:25.182Z,9.73
2018-04-26T01:14:29.340Z,10.43
2018-04-26T01:16:33.949Z,9.33
2018-04-26T01:18:37.880Z,10.40
2018-04-26T01:20:41.969Z,13.97
2018-04-26T01:22:46.564Z,10.27
2018-04-26T01:24:50.769Z,10.27
2018-04-26T01:26:54.743Z,9.30
2018-04-26T01:28:59.348Z,10.10
2018-04-26T01:31:03.659Z,9.30
2018-04-26T01:33:08.814Z,9.00
2018-04-26T01:35:13.501Z,8.37
2018-04-26T01:37:54.661Z,8.37
2018-04-26T01:39:58.805Z,8.10
2018-04-26T01:42:02.705Z,8.20
2018-04-26T01:44:07.278Z,7.63
2018-04-26T01:46:11.530Z,7.20
2018-04-26T01:48:17.349Z,6.80
2018-04-26T01:50:23.652Z,8.13
2018-04-26T01:52:27.497Z,8.53
2018-04-26T01:54:31.608Z,8.07
2018-04-26T01:56:36.101Z,9.73
2018-04-26T01:58:40.284Z,10.13
2018-04-26T02:00:44.556Z,7.93
2018-04-26T02:02:49.211Z,9.13
2018-04-26T02:04:53.358Z,7.90
2018-04-26T02:06:57.490Z,8.03
2018-04-26T02:09:02.184Z,7.63
2018-04-26T02:11:06.460Z,8.83
2018-04-26T02:13:12.148Z,8.97
2018-04-26T02:15:19.436Z,8.83
2018-04-26T02:17:25.497Z,10.07
2018-04-26T02:19:29.962Z,9.20
2018-04-26T02:21:34.544Z,8.00
2018-04-26T02:23:38.668Z,7.87
2018-04-26T02:25:42.888Z,8.70
2018-04-26T02:27:47.364Z,8.67
2018-04-26T02:29:51.535Z,11.73
2018-04-26T02:31:55.748Z,9.27
2018-04-26T02:34:00.427Z,13.50
2018-04-26T02:36:04.705Z,8.17
2018-04-26T02:38:09.610Z,8.50
2018-04-26T02:40:15.060Z,8.30
2018-04-26T02:42:20.686Z,7.50
2018-04-26T02:44:26.320Z,8.17
2018-04-26T02:46:31.270Z,8.30
2018-04-26T02:48:35.602Z,9.40
2018-04-26T02:50:39.865Z,9.13
2018-04-26T02:52:44.256Z,8.80
2018-04-26T02:54:49.054Z,9.47
2018-04-26T02:56:53.082Z,7.70
2018-04-26T02:58:57.360Z,7.63
2018-04-26T03:01:01.826Z,8.23
2018-04-26T03:03:06.389Z,6.80
2018-04-26T03:05:12.527Z,6.77
2018-04-26T03:07:17.446Z,7.40
2018-04-26T03:09:22.950Z,6.00
2018-04-26T03:11:27.420Z,7.67
2018-04-26T03:13:32.174Z,5.43
2018-04-26T03:15:36.410Z,6.37
2018-04-26T03:17:40.721Z,11.20
2018-04-26T03:19:45.281Z,5.87
2018-04-26T03:21:49.422Z,5.53
2018-04-26T03:23:53.370Z,6.80
2018-04-26T03:25:57.455Z,5.20
2018-04-26T03:28:02.081Z,6.27
2018-04-26T03:30:07.095Z,7.13
2018-04-26T03:32:13.040Z,5.20
2018-04-26T03:34:17.067Z,8.30
2018-04-26T03:36:22.897Z,5.63
2018-04-26T03:38:27.062Z,5.30
2018-04-26T03:40:31.105Z,4.63
2018-04-26T03:42:35.857Z,9.97
2018-04-26T03:44:40.198Z,5.37
2018-04-26T03:46:44.468Z,4.43
2018-04-26T03:48:48.465Z,6.70
2018-04-26T03:50:53.213Z,4.97
2018-04-26T03:52:57.245Z,6.10
2018-04-26T03:55:01.428Z,3.80
2018-04-26T03:57:05.377Z,3.87
2018-04-26T03:59:12.551Z,7.90
2018-04-26T04:02:28.035Z,4.17
2018-04-26T04:05:48.694Z,4.63
2018-04-26T04:07:52.967Z,4.20
2018-04-26T04:09:57.152Z,4.30
2018-04-26T04:12:01.177Z,3.50
2018-04-26T04:14:05.293Z,4.37
2018-04-26T04:16:09.686Z,5.90
2018-04-26T04:18:13.712Z,4.77
2018-04-26T04:20:18.112Z,5.33
2018-04-26T04:22:26.093Z,7.50
2018-04-26T04:24:30.078Z,6.73
2018-04-26T04:26:33.910Z,6.03
2018-04-26T04:28:38.094Z,2.93
2018-04-26T04:30:41.969Z,4.40
2018-04-26T04:32:45.808Z,4.93
2018-04-26T04:34:50.275Z,6.30
2018-04-26T04:36:54.253Z,6.57
2018-04-26T04:38:58.459Z,4.03
2018-04-26T04:41:02.774Z,3.63
2018-04-26T04:43:07.674Z,4.77
2018-04-26T04:45:13.610Z,3.10
2018-04-26T04:47:20.158Z,7.13
2018-04-26T04:49:24.549Z,106.17
2018-04-26T04:51:28.521Z,380.80
2018-04-26T04:53:32.805Z,467.37
2018-04-26T04:55:37.074Z,449.60
2018-04-26T04:57:41.048Z,228.63
2018-04-26T04:59:46.725Z,150.93
2018-04-26T05:01:50.735Z,100.77
2018-04-26T05:03:54.771Z,78.43
2018-04-26T05:05:59.577Z,73.70
2018-04-26T05:08:03.680Z,81.77
2018-04-26T05:10:07.736Z,48.20
2018-04-26T05:12:12.131Z,137.10
2018-04-26T05:14:16.947Z,560.80
2018-04-26T05:16:21.658Z,485.93
2018-04-26T05:18:25.996Z,405.83
2018-04-26T05:20:30.238Z,237.63
2018-04-26T05:22:34.109Z,162.10
2018-04-26T05:24:38.300Z,157.13
2018-04-26T05:26:42.157Z,128.00
2018-04-26T05:28:46.061Z,405.60
2018-04-26T05:30:51.303Z,265.73
2018-04-26T05:32:55.137Z,263.60
2018-04-26T05:34:59.173Z,259.30
2018-04-26T05:37:03.564Z,314.00
2018-04-26T05:39:07.501Z,344.63
2018-04-26T05:41:11.668Z,323.03
2018-04-26T05:43:16.407Z,279.63
2018-04-26T05:45:21.619Z,209.77
2018-04-26T05:47:26.919Z,226.10
2018-04-26T05:49:31.801Z,209.10
2018-04-26T05:51:36.442Z,174.83
2018-04-26T05:53:40.918Z,116.27
2018-04-26T05:55:45.734Z,63.30
2018-04-26T05:57:49.546Z,56.60
2018-04-26T05:59:53.723Z,42.53
2018-04-26T06:01:57.869Z,28.53
2018-04-26T06:04:02.158Z,26.50
2018-04-26T06:06:09.056Z,26.07
2018-04-26T06:08:13.546Z,15.17
2018-04-26T06:10:19.100Z,13.53
2018-04-26T06:12:23.844Z,13.37
2018-04-26T06:14:28.229Z,9.67
2018-04-26T06:16:32.097Z,8.70
2018-04-26T06:18:36.118Z,11.30
2018-04-26T06:20:40.466Z,10.83
2018-04-26T06:22:44.612Z,7.20
2018-04-26T06:24:48.896Z,10.80
2018-04-26T06:26:53.389Z,64.60
2018-04-26T06:28:58.014Z,316.63
2018-04-26T06:31:02.237Z,205.13
2018-04-26T06:33:08.456Z,121.70
2018-04-26T06:35:12.578Z,75.37
2018-04-26T06:37:17.805Z,55.07
2018-04-26T06:39:22.754Z,38.47
2018-04-26T06:41:26.706Z,22.80
2018-04-26T06:43:31.054Z,22.97
2018-04-26T06:45:35.345Z,107.47
2018-04-26T06:47:39.399Z,205.10
2018-04-26T06:49:43.666Z,160.50
2018-04-26T06:51:47.820Z,112.97
2018-04-26T06:53:52.023Z,73.50
2018-04-26T06:55:56.017Z,47.67
2018-04-26T06:58:00.261Z,34.40
2018-04-26T07:00:04.569Z,23.03
2018-04-26T07:02:10.819Z,19.70
2018-04-26T07:04:15.921Z,47.37
2018-04-26T07:06:21.461Z,109.10
2018-04-26T07:08:26.297Z,285.00
2018-04-26T07:10:30.725Z,72.03
2018-04-26T07:12:34.913Z,60.70
2018-04-26T07:14:38.827Z,29.33
2018-04-26T07:16:43.685Z,25.40
2018-04-26T07:18:48.129Z,15.20
2018-04-26T07:20:52.222Z,14.30
2018-04-26T07:22:56.841Z,9.77
2018-04-26T07:25:01.131Z,8.67
2018-04-26T07:27:05.302Z,9.73
2018-04-26T07:29:11.106Z,4.70
2018-04-26T07:31:15.519Z,4.23
2018-04-26T07:33:21.535Z,8.47
2018-04-26T07:35:26.470Z,4.57
2018-04-26T07:37:31.328Z,8.37
2018-04-26T07:39:36.964Z,229.13
2018-04-26T07:41:41.764Z,400.03
2018-04-26T07:43:47.370Z,197.13
2018-04-26T07:45:52.278Z,115.50
2018-04-26T07:48:02.268Z,76.17
2018-04-26T07:50:08.731Z,52.40
2018-04-26T07:52:13.012Z,39.50
2018-04-26T07:54:19.558Z,27.40
2018-04-26T07:56:27.081Z,19.70
2018-04-26T07:58:32.372Z,15.20
2018-04-26T08:00:36.801Z,10.83
2018-04-26T08:02:41.647Z,11.97
2018-04-26T08:04:45.954Z,9.90
2018-04-26T08:06:50.289Z,9.23
2018-04-26T08:08:54.506Z,8.40
2018-04-26T08:10:59.336Z,6.40
2018-04-26T08:13:04.153Z,3.30
2018-04-26T08:15:10.422Z,180.17
2018-04-26T08:17:14.456Z,187.90
2018-04-26T08:19:21.220Z,118.80
2018-04-26T08:21:25.790Z,78.67
2018-04-26T08:23:29.896Z,57.17
2018-04-26T08:25:34.511Z,45.43
2018-04-26T08:27:38.629Z,28.63
2018-04-26T08:29:43.281Z,23.63
2018-04-26T08:31:47.833Z,14.03
2018-04-26T08:33:52.295Z,15.90
2018-04-26T08:35:56.599Z,6.90
2018-04-26T08:38:01.113Z,7.93
2018-04-26T08:40:05.349Z,139.83
2018-04-26T08:42:11.190Z,224.80
2018-04-26T08:44:16.081Z,133.30
2018-04-26T08:46:23.076Z,65.90
2018-04-26T08:48:28.918Z,46.33
2018-04-26T08:50:33.566Z,34.93
2018-04-26T08:52:37.629Z,16.03
2018-04-26T08:54:42.142Z,13.90
2018-04-26T08:56:46.483Z,14.20
2018-04-26T08:58:51.054Z,8.90
2018-04-26T09:00:55.357Z,7.70
2018-04-26T09:03:00.042Z,8.90
2018-04-26T09:05:04.481Z,8.87
2018-04-26T09:07:11.150Z,8.57
2018-04-26T09:09:15.854Z,4.60
2018-04-26T09:11:21.094Z,6.93
2018-04-26T09:13:25.322Z,6.30
2018-04-26T09:15:30.412Z,9.07
2018-04-26T09:17:39.399Z,4.27
2018-04-26T09:19:43.671Z,12.80
2018-04-26T09:21:48.080Z,5.70
2018-04-26T09:23:52.242Z,7.03
2018-04-26T09:25:56.298Z,4.00
2018-04-26T09:28:00.827Z,3.20
2018-04-26T09:30:05.187Z,3.80
2018-04-26T09:32:11.913Z,3.60
2018-04-26T09:34:20.623Z,139.93
2018-04-26T09:36:25.765Z,182.77
2018-04-26T09:38:30.456Z,171.80
2018-04-26T09:40:34.948Z,117.93
2018-04-26T09:42:39.235Z,73.30
2018-04-26T09:44:43.910Z,50.80
2018-04-26T09:46:48.537Z,37.00
2018-04-26T09:48:52.864Z,19.10
2018-04-26T09:50:56.872Z,16.70
2018-04-26T09:53:01.693Z,14.47
2018-04-26T09:57:25.174Z,6.17
2018-04-26T09:59:29.724Z,5.33
2018-04-26T10:01:36.058Z,9.93
2018-04-26T10:03:40.408Z,5.83
2018-04-26T10:05:48.703Z,5.70
2018-04-26T10:07:52.906Z,4.17
2018-04-26T10:09:59.519Z,5.10
2018-04-26T10:12:04.364Z,2.33
2018-04-26T10:14:12.083Z,3.73
2018-04-26T10:16:16.874Z,2.33
2018-04-26T10:18:24.213Z,4.60
2018-04-26T10:20:28.412Z,2.90
2018-04-26T10:22:32.535Z,3.77
2018-04-26T10:24:36.808Z,2.47
2018-04-26T10:26:40.968Z,1.73
2018-04-26T10:28:45.017Z,1.70
2018-04-26T10:30:49.537Z,3.10
2018-04-26T10:32:53.738Z,3.00
2018-04-26T10:34:58.002Z,4.67
2018-04-26T10:37:02.396Z,2.20
2018-04-26T10:39:08.400Z,3.10
2018-04-26T10:41:12.746Z,3.70
2018-04-26T10:43:17.354Z,1.77
2018-04-26T10:45:22.547Z,1.93
2018-04-26T10:47:27.451Z,2.17
2018-04-26T10:49:31.738Z,1.97
2018-04-26T10:51:36.094Z,2.30
2018-04-26T10:53:40.483Z,2.13
2018-04-26T10:55:47.518Z,3.40
2018-04-26T10:57:51.971Z,1.67
2018-04-26T10:59:56.095Z,2.03
2018-04-26T11:02:00.213Z,2.43
2018-04-26T11:04:04.122Z,1.57
2018-04-26T11:06:09.096Z,1.40
2018-04-26T11:08:13.900Z,2.40
2018-04-26T11:10:18.520Z,3.07
2018-04-26T11:12:22.788Z,172.37
2018-04-26T11:14:27.001Z,314.77
2018-04-26T11:16:31.044Z,391.50
2018-04-26T11:18:34.942Z,299.47
2018-04-26T11:20:43.649Z,216.27
2018-04-26T11:22:47.541Z,190.87
2018-04-26T11:24:51.504Z,139.73
2018-04-26T11:26:55.920Z,127.50
2018-04-26T11:28:59.877Z,101.70
2018-04-26T11:31:03.993Z,87.47
2018-04-26T11:33:10.702Z,75.37
2018-04-26T11:35:14.973Z,68.00
2018-04-26T11:37:23.447Z,54.47
2018-04-26T11:39:28.601Z,43.57
2018-04-26T11:41:33.244Z,42.83
2018-04-26T11:43:38.097Z,31.67
2018-04-26T11:45:43.057Z,28.70
2018-04-26T11:49:12.255Z,27.17
2018-04-26T11:51:18.635Z,17.30
2018-04-26T11:53:25.623Z,15.13
2018-04-26T11:55:31.539Z,12.57
2018-04-26T11:57:36.006Z,10.60
2018-04-26T11:59:40.310Z,11.30
2018-04-26T12:01:45.187Z,8.53
